sensor_id;sensor_type;location;lat;lon;timestamp;temperature;humidity
41987;DHT22;28361;50.740;7.084;2022-10-16T00:02:05;15.40;99.90
41987;DHT22;28361;50.740;7.084;2022-10-16T00:04:31;15.40;99.90
41987;DHT22;28361;50.740;7.084;2022-10-16T00:06:57;15.40;99.90
41987;DHT22;28361;50.740;7.084;2022-10-16T00:26:30;15.40;99.90
41987;DHT22;28361;50.740;7.084;2022-10-16T00:28:56;15.40;99.90
41987;DHT22;28361;50.740;7.084;2022-10-16T00:31:23;15.40;99.90
41987;DHT22;28361;50.740;7.084;2022-10-16T00:33:49;15.40;99.90
41987;DHT22;28361;50.740;7.084;2022-10-16T00:36:17;15.40;99.90
41987;DHT22;28361;50.740;7.084;2022-10-16T00:38:44;15.40;99.90
41987;DHT22;28361;50.740;7.084;2022-10-16T00:41:14;15.40;99.90
41987;DHT22;28361;50.740;7.084;2022-10-16T00:43:47;15.30;99.90
41987;DHT22;28361;50.740;7.084;2022-10-16T00:46:22;15.30;99.90
41987;DHT22;28361;50.740;7.084;2022-10-16T00:51:23;15.20;99.90
41987;DHT22;28361;50.740;7.084;2022-10-16T00:53:50;15.10;99.90
41987;DHT22;28361;50.740;7.084;2022-10-16T00:56:16;15.10;99.90
41987;DHT22;28361;50.740;7.084;2022-10-16T00:58:42;15.20;99.90
41987;DHT22;28361;50.740;7.084;2022-10-16T01:01:08;15.20;99.90
41987;DHT22;28361;50.740;7.084;2022-10-16T01:03:36;15.10;99.90
41987;DHT22;28361;50.740;7.084;2022-10-16T01:13:53;15.00;99.90
41987;DHT22;28361;50.740;7.084;2022-10-16T01:16:25;15.00;99.90
41987;DHT22;28361;50.740;7.084;2022-10-16T01:19:02;15.00;99.90
41987;DHT22;28361;50.740;7.084;2022-10-16T01:21:39;14.90;99.90
41987;DHT22;28361;50.740;7.084;2022-10-16T01:30:10;14.80;99.90
41987;DHT22;28361;50.740;7.084;2022-10-16T01:32:48;14.80;99.90
41987;DHT22;28361;50.740;7.084;2022-10-16T01:40:47;14.70;99.90
41987;DHT22;28361;50.740;7.084;2022-10-16T01:43:19;14.70;99.90
41987;DHT22;28361;50.740;7.084;2022-10-16T01:45:46;14.60;99.90
41987;DHT22;28361;50.740;7.084;2022-10-16T01:48:16;14.60;99.90
41987;DHT22;28361;50.740;7.084;2022-10-16T01:50:44;14.50;99.90
41987;DHT22;28361;50.740;7.084;2022-10-16T01:53:14;14.60;99.90
41987;DHT22;28361;50.740;7.084;2022-10-16T01:55:46;14.50;99.90
41987;DHT22;28361;50.740;7.084;2022-10-16T01:58:14;14.60;99.90
41987;DHT22;28361;50.740;7.084;2022-10-16T02:00:44;14.70;99.90
41987;DHT22;28361;50.740;7.084;2022-10-16T02:03:13;14.70;99.90
41987;DHT22;28361;50.740;7.084;2022-10-16T02:05:45;14.80;99.90
41987;DHT22;28361;50.740;7.084;2022-10-16T02:08:12;14.90;99.90
41987;DHT22;28361;50.740;7.084;2022-10-16T02:10:38;14.90;99.90
41987;DHT22;28361;50.740;7.084;2022-10-16T02:13:18;15.00;99.90
41987;DHT22;28361;50.740;7.084;2022-10-16T02:15:46;15.00;99.90
41987;DHT22;28361;50.740;7.084;2022-10-16T02:18:12;15.00;99.90
41987;DHT22;28361;50.740;7.084;2022-10-16T02:21:14;15.10;99.90
41987;DHT22;28361;50.740;7.084;2022-10-16T02:26:18;15.10;99.90
41987;DHT22;28361;50.740;7.084;2022-10-16T02:28:53;15.10;99.90
41987;DHT22;28361;50.740;7.084;2022-10-16T02:31:25;15.20;99.90
41987;DHT22;28361;50.740;7.084;2022-10-16T02:33:53;15.30;99.90
41987;DHT22;28361;50.740;7.084;2022-10-16T02:36:20;15.30;99.90
41987;DHT22;28361;50.740;7.084;2022-10-16T02:38:46;15.30;99.90
41987;DHT22;28361;50.740;7.084;2022-10-16T02:41:12;15.30;99.90
41987;DHT22;28361;50.740;7.084;2022-10-16T02:43:39;15.30;99.90
41987;DHT22;28361;50.740;7.084;2022-10-16T02:46:04;15.40;99.90
41987;DHT22;28361;50.740;7.084;2022-10-16T02:48:30;15.30;99.90
41987;DHT22;28361;50.740;7.084;2022-10-16T02:50:56;15.40;99.90
41987;DHT22;28361;50.740;7.084;2022-10-16T02:53:22;15.30;99.90
41987;DHT22;28361;50.740;7.084;2022-10-16T02:55:48;15.30;99.90
41987;DHT22;28361;50.740;7.084;2022-10-16T02:58:14;15.20;99.90
41987;DHT22;28361;50.740;7.084;2022-10-16T03:00:39;15.20;99.90
41987;DHT22;28361;50.740;7.084;2022-10-16T03:03:05;15.20;99.90
41987;DHT22;28361;50.740;7.084;2022-10-16T03:05:31;15.20;99.90
41987;DHT22;28361;50.740;7.084;2022-10-16T03:07:57;15.30;99.90
41987;DHT22;28361;50.740;7.084;2022-10-16T03:10:25;15.20;99.90
41987;DHT22;28361;50.740;7.084;2022-10-16T03:12:51;15.30;99.90
41987;DHT22;28361;50.740;7.084;2022-10-16T03:15:16;15.20;99.90
41987;DHT22;28361;50.740;7.084;2022-10-16T03:17:42;15.20;99.90
41987;DHT22;28361;50.740;7.084;2022-10-16T03:20:08;15.20;99.90
41987;DHT22;28361;50.740;7.084;2022-10-16T03:22:34;15.30;99.90
41987;DHT22;28361;50.740;7.084;2022-10-16T03:25:00;15.30;99.90
41987;DHT22;28361;50.740;7.084;2022-10-16T03:27:26;15.30;99.90
41987;DHT22;28361;50.740;7.084;2022-10-16T03:29:51;15.40;99.90
41987;DHT22;28361;50.740;7.084;2022-10-16T03:32:17;15.30;99.90
41987;DHT22;28361;50.740;7.084;2022-10-16T03:34:43;15.30;99.90
41987;DHT22;28361;50.740;7.084;2022-10-16T03:37:09;15.30;99.90
41987;DHT22;28361;50.740;7.084;2022-10-16T03:39:35;15.30;99.90
41987;DHT22;28361;50.740;7.084;2022-10-16T03:42:01;15.20;99.90
41987;DHT22;28361;50.740;7.084;2022-10-16T03:44:26;15.30;99.90
41987;DHT22;28361;50.740;7.084;2022-10-16T03:46:52;15.30;99.90
41987;DHT22;28361;50.740;7.084;2022-10-16T03:49:18;15.30;99.90
41987;DHT22;28361;50.740;7.084;2022-10-16T03:51:43;15.20;99.90
41987;DHT22;28361;50.740;7.084;2022-10-16T03:54:10;15.20;99.90
41987;DHT22;28361;50.740;7.084;2022-10-16T03:56:36;15.20;99.90
41987;DHT22;28361;50.740;7.084;2022-10-16T03:59:01;15.30;99.90
41987;DHT22;28361;50.740;7.084;2022-10-16T04:01:27;15.20;99.90
41987;DHT22;28361;50.740;7.084;2022-10-16T04:03:53;15.20;99.90
41987;DHT22;28361;50.740;7.084;2022-10-16T04:06:18;15.30;99.90
41987;DHT22;28361;50.740;7.084;2022-10-16T04:08:44;15.30;99.90
41987;DHT22;28361;50.740;7.084;2022-10-16T04:11:10;15.30;99.90
41987;DHT22;28361;50.740;7.084;2022-10-16T04:13:36;15.30;99.90
41987;DHT22;28361;50.740;7.084;2022-10-16T04:16:02;15.40;99.90
41987;DHT22;28361;50.740;7.084;2022-10-16T04:18:27;15.40;99.90
41987;DHT22;28361;50.740;7.084;2022-10-16T04:20:54;15.40;99.90
41987;DHT22;28361;50.740;7.084;2022-10-16T04:23:20;15.30;99.90
41987;DHT22;28361;50.740;7.084;2022-10-16T04:25:45;15.30;99.90
41987;DHT22;28361;50.740;7.084;2022-10-16T04:28:11;15.20;99.90
41987;DHT22;28361;50.740;7.084;2022-10-16T04:30:40;15.20;99.90
41987;DHT22;28361;50.740;7.084;2022-10-16T04:33:05;15.20;99.90
41987;DHT22;28361;50.740;7.084;2022-10-16T04:35:31;15.30;99.90
41987;DHT22;28361;50.740;7.084;2022-10-16T04:37:58;15.40;99.90
41987;DHT22;28361;50.740;7.084;2022-10-16T04:40:24;15.30;99.90
41987;DHT22;28361;50.740;7.084;2022-10-16T04:42:49;15.20;99.90
41987;DHT22;28361;50.740;7.084;2022-10-16T04:45:15;15.10;99.90
41987;DHT22;28361;50.740;7.084;2022-10-16T04:47:41;15.10;99.90
41987;DHT22;28361;50.740;7.084;2022-10-16T04:50:07;15.10;99.90
41987;DHT22;28361;50.740;7.084;2022-10-16T04:52:33;15.10;99.90
41987;DHT22;28361;50.740;7.084;2022-10-16T04:54:59;15.00;99.90
41987;DHT22;28361;50.740;7.084;2022-10-16T04:57:27;15.00;99.90
41987;DHT22;28361;50.740;7.084;2022-10-16T04:59:53;15.00;99.90
41987;DHT22;28361;50.740;7.084;2022-10-16T05:02:19;15.00;99.90
41987;DHT22;28361;50.740;7.084;2022-10-16T05:04:45;15.00;99.90
41987;DHT22;28361;50.740;7.084;2022-10-16T05:07:11;15.00;99.90
41987;DHT22;28361;50.740;7.084;2022-10-16T05:09:36;14.90;99.90
41987;DHT22;28361;50.740;7.084;2022-10-16T05:12:02;14.90;99.90
41987;DHT22;28361;50.740;7.084;2022-10-16T05:14:29;14.90;99.90
41987;DHT22;28361;50.740;7.084;2022-10-16T05:16:54;14.90;99.90
41987;DHT22;28361;50.740;7.084;2022-10-16T05:19:20;14.90;99.90
41987;DHT22;28361;50.740;7.084;2022-10-16T05:21:46;14.90;99.90
41987;DHT22;28361;50.740;7.084;2022-10-16T05:24:12;14.80;99.90
41987;DHT22;28361;50.740;7.084;2022-10-16T05:26:37;14.90;99.90
41987;DHT22;28361;50.740;7.084;2022-10-16T05:29:03;14.90;99.90
41987;DHT22;28361;50.740;7.084;2022-10-16T05:31:29;14.80;99.90
41987;DHT22;28361;50.740;7.084;2022-10-16T05:33:59;14.80;99.90
41987;DHT22;28361;50.740;7.084;2022-10-16T05:36:25;14.80;99.90
41987;DHT22;28361;50.740;7.084;2022-10-16T05:38:51;14.80;99.90
41987;DHT22;28361;50.740;7.084;2022-10-16T05:41:18;14.80;99.90
41987;DHT22;28361;50.740;7.084;2022-10-16T05:43:50;14.90;99.90
41987;DHT22;28361;50.740;7.084;2022-10-16T05:46:16;14.80;99.90
41987;DHT22;28361;50.740;7.084;2022-10-16T05:48:42;14.90;99.90
41987;DHT22;28361;50.740;7.084;2022-10-16T05:51:10;14.90;99.90
41987;DHT22;28361;50.740;7.084;2022-10-16T05:53:38;15.00;99.90
41987;DHT22;28361;50.740;7.084;2022-10-16T05:56:05;15.00;99.90
41987;DHT22;28361;50.740;7.084;2022-10-16T05:58:33;14.90;99.90
41987;DHT22;28361;50.740;7.084;2022-10-16T06:01:10;14.90;99.90
41987;DHT22;28361;50.740;7.084;2022-10-16T06:03:35;14.90;99.90
41987;DHT22;28361;50.740;7.084;2022-10-16T06:06:12;14.90;99.90
41987;DHT22;28361;50.740;7.084;2022-10-16T06:08:39;14.90;99.90
41987;DHT22;28361;50.740;7.084;2022-10-16T06:11:08;14.80;99.90
41987;DHT22;28361;50.740;7.084;2022-10-16T06:13:34;14.90;99.90
41987;DHT22;28361;50.740;7.084;2022-10-16T06:16:00;15.00;99.90
41987;DHT22;28361;50.740;7.084;2022-10-16T06:18:27;15.00;99.90
41987;DHT22;28361;50.740;7.084;2022-10-16T06:20:54;15.00;99.90
41987;DHT22;28361;50.740;7.084;2022-10-16T06:23:20;15.00;99.90
41987;DHT22;28361;50.740;7.084;2022-10-16T06:25:46;15.00;99.90
41987;DHT22;28361;50.740;7.084;2022-10-16T06:28:14;15.00;99.90
41987;DHT22;28361;50.740;7.084;2022-10-16T06:30:40;15.00;99.90
41987;DHT22;28361;50.740;7.084;2022-10-16T06:33:05;15.00;99.90
41987;DHT22;28361;50.740;7.084;2022-10-16T06:35:31;15.00;99.90
41987;DHT22;28361;50.740;7.084;2022-10-16T06:37:57;15.00;99.90
41987;DHT22;28361;50.740;7.084;2022-10-16T06:40:23;15.00;99.90
41987;DHT22;28361;50.740;7.084;2022-10-16T06:42:49;15.00;99.90
41987;DHT22;28361;50.740;7.084;2022-10-16T06:45:15;15.00;99.90
41987;DHT22;28361;50.740;7.084;2022-10-16T06:47:41;15.00;99.90
41987;DHT22;28361;50.740;7.084;2022-10-16T06:50:07;15.00;99.90
41987;DHT22;28361;50.740;7.084;2022-10-16T06:52:33;15.00;99.90
41987;DHT22;28361;50.740;7.084;2022-10-16T06:54:59;15.10;99.90
41987;DHT22;28361;50.740;7.084;2022-10-16T06:57:26;15.10;99.90
41987;DHT22;28361;50.740;7.084;2022-10-16T06:59:52;15.10;99.90
41987;DHT22;28361;50.740;7.084;2022-10-16T07:02:17;15.30;99.90
41987;DHT22;28361;50.740;7.084;2022-10-16T07:04:43;15.40;99.90
41987;DHT22;28361;50.740;7.084;2022-10-16T07:07:08;15.40;99.90
41987;DHT22;28361;50.740;7.084;2022-10-16T07:09:34;15.40;99.90
41987;DHT22;28361;50.740;7.084;2022-10-16T07:12:00;15.40;99.90
41987;DHT22;28361;50.740;7.084;2022-10-16T07:14:26;15.50;99.90
41987;DHT22;28361;50.740;7.084;2022-10-16T07:16:51;15.50;99.90
41987;DHT22;28361;50.740;7.084;2022-10-16T07:19:17;15.60;99.90
41987;DHT22;28361;50.740;7.084;2022-10-16T07:21:44;15.60;99.90
41987;DHT22;28361;50.740;7.084;2022-10-16T07:24:15;15.70;99.90
41987;DHT22;28361;50.740;7.084;2022-10-16T07:26:44;15.70;99.90
41987;DHT22;28361;50.740;7.084;2022-10-16T07:29:21;15.70;99.90
41987;DHT22;28361;50.740;7.084;2022-10-16T07:31:47;15.70;99.90
41987;DHT22;28361;50.740;7.084;2022-10-16T07:34:15;15.90;99.90
41987;DHT22;28361;50.740;7.084;2022-10-16T07:36:41;15.90;99.90
41987;DHT22;28361;50.740;7.084;2022-10-16T07:39:06;16.00;99.90
41987;DHT22;28361;50.740;7.084;2022-10-16T07:41:32;15.90;99.90
41987;DHT22;28361;50.740;7.084;2022-10-16T07:44:02;16.00;99.90
41987;DHT22;28361;50.740;7.084;2022-10-16T07:46:29;15.90;99.90
41987;DHT22;28361;50.740;7.084;2022-10-16T07:48:55;15.90;99.90
41987;DHT22;28361;50.740;7.084;2022-10-16T07:51:24;16.00;99.90
41987;DHT22;28361;50.740;7.084;2022-10-16T07:53:50;16.00;99.90
41987;DHT22;28361;50.740;7.084;2022-10-16T07:56:17;16.10;99.90
41987;DHT22;28361;50.740;7.084;2022-10-16T07:58:43;16.10;99.90
41987;DHT22;28361;50.740;7.084;2022-10-16T08:01:12;16.30;99.90
41987;DHT22;28361;50.740;7.084;2022-10-16T08:03:41;16.30;99.90
41987;DHT22;28361;50.740;7.084;2022-10-16T08:06:07;16.40;99.90
41987;DHT22;28361;50.740;7.084;2022-10-16T08:08:32;16.30;99.90
41987;DHT22;28361;50.740;7.084;2022-10-16T08:10:59;16.30;99.90
41987;DHT22;28361;50.740;7.084;2022-10-16T08:13:24;16.20;99.90
41987;DHT22;28361;50.740;7.084;2022-10-16T08:15:53;16.10;99.90
41987;DHT22;28361;50.740;7.084;2022-10-16T08:18:19;16.10;99.90
41987;DHT22;28361;50.740;7.084;2022-10-16T08:20:44;16.20;99.90
41987;DHT22;28361;50.740;7.084;2022-10-16T08:23:13;16.30;99.90
41987;DHT22;28361;50.740;7.084;2022-10-16T08:25:40;16.30;99.90
41987;DHT22;28361;50.740;7.084;2022-10-16T08:28:08;16.50;99.90
41987;DHT22;28361;50.740;7.084;2022-10-16T08:30:34;16.70;99.90
41987;DHT22;28361;50.740;7.084;2022-10-16T08:33:01;17.10;99.90
41987;DHT22;28361;50.740;7.084;2022-10-16T08:35:27;17.30;99.90
41987;DHT22;28361;50.740;7.084;2022-10-16T08:37:53;17.50;99.90
41987;DHT22;28361;50.740;7.084;2022-10-16T08:46:13;18.60;99.90
41987;DHT22;28361;50.740;7.084;2022-10-16T08:48:54;18.30;99.90
41987;DHT22;28361;50.740;7.084;2022-10-16T08:51:24;18.00;99.90
41987;DHT22;28361;50.740;7.084;2022-10-16T08:53:56;18.00;99.90
41987;DHT22;28361;50.740;7.084;2022-10-16T08:56:23;18.10;99.90
41987;DHT22;28361;50.740;7.084;2022-10-16T08:58:49;18.10;99.90
41987;DHT22;28361;50.740;7.084;2022-10-16T09:01:19;18.00;99.90
41987;DHT22;28361;50.740;7.084;2022-10-16T09:09:38;18.10;99.90
41987;DHT22;28361;50.740;7.084;2022-10-16T09:18:43;18.40;99.90
41987;DHT22;28361;50.740;7.084;2022-10-16T09:21:24;18.80;99.90
41987;DHT22;28361;50.740;7.084;2022-10-16T09:23:51;19.50;99.90
41987;DHT22;28361;50.740;7.084;2022-10-16T09:26:18;20.10;99.90
41987;DHT22;28361;50.740;7.084;2022-10-16T09:28:45;20.00;99.90
41987;DHT22;28361;50.740;7.084;2022-10-16T09:31:19;20.10;99.90
41987;DHT22;28361;50.740;7.084;2022-10-16T09:33:50;20.60;99.90
41987;DHT22;28361;50.740;7.084;2022-10-16T09:36:18;21.00;99.90
41987;DHT22;28361;50.740;7.084;2022-10-16T09:38:44;21.10;99.90
41987;DHT22;28361;50.740;7.084;2022-10-16T09:41:21;21.20;99.90
41987;DHT22;28361;50.740;7.084;2022-10-16T09:43:54;21.10;99.90
41987;DHT22;28361;50.740;7.084;2022-10-16T09:49:01;21.50;98.60
41987;DHT22;28361;50.740;7.084;2022-10-16T09:51:31;21.70;96.60
41987;DHT22;28361;50.740;7.084;2022-10-16T09:53:58;22.10;93.80
41987;DHT22;28361;50.740;7.084;2022-10-16T09:56:27;22.10;93.30
41987;DHT22;28361;50.740;7.084;2022-10-16T09:58:55;22.00;89.70
41987;DHT22;28361;50.740;7.084;2022-10-16T10:01:23;21.60;85.20
41987;DHT22;28361;50.740;7.084;2022-10-16T10:03:50;21.50;85.60
41987;DHT22;28361;50.740;7.084;2022-10-16T10:06:28;21.50;87.20
41987;DHT22;28361;50.740;7.084;2022-10-16T10:19:39;22.30;62.00
41987;DHT22;28361;50.740;7.084;2022-10-16T10:22:25;22.20;46.10
41987;DHT22;28361;50.740;7.084;2022-10-16T10:32:48;23.20;1.00
41987;DHT22;28361;50.740;7.084;2022-10-16T10:35:30;23.10;1.00
41987;DHT22;28361;50.740;7.084;2022-10-16T10:44:03;23.00;1.00
41987;DHT22;28361;50.740;7.084;2022-10-16T10:46:51;22.40;1.00
41987;DHT22;28361;50.740;7.084;2022-10-16T10:55:23;23.60;1.00
41987;DHT22;28361;50.740;7.084;2022-10-16T11:00:50;22.40;1.00
41987;DHT22;28361;50.740;7.084;2022-10-16T11:03:46;23.00;1.00
41987;DHT22;28361;50.740;7.084;2022-10-16T11:06:18;24.00;1.00
41987;DHT22;28361;50.740;7.084;2022-10-16T11:08:51;23.10;1.00
41987;DHT22;28361;50.740;7.084;2022-10-16T11:11:34;22.40;1.00
41987;DHT22;28361;50.740;7.084;2022-10-16T11:14:14;21.80;1.00
41987;DHT22;28361;50.740;7.084;2022-10-16T11:16:43;21.90;1.00
41987;DHT22;28361;50.740;7.084;2022-10-16T11:19:20;22.10;1.00
41987;DHT22;28361;50.740;7.084;2022-10-16T11:22:01;22.60;1.00
41987;DHT22;28361;50.740;7.084;2022-10-16T11:24:42;23.10;1.00
41987;DHT22;28361;50.740;7.084;2022-10-16T11:27:15;23.60;1.00
41987;DHT22;28361;50.740;7.084;2022-10-16T11:29:49;23.60;1.00
41987;DHT22;28361;50.740;7.084;2022-10-16T11:32:22;23.00;1.00
41987;DHT22;28361;50.740;7.084;2022-10-16T11:34:53;23.10;1.00
41987;DHT22;28361;50.740;7.084;2022-10-16T11:37:25;23.90;1.00
41987;DHT22;28361;50.740;7.084;2022-10-16T11:39:54;24.40;1.00
41987;DHT22;28361;50.740;7.084;2022-10-16T11:42:30;24.50;1.00
41987;DHT22;28361;50.740;7.084;2022-10-16T11:45:03;25.10;1.00
41987;DHT22;28361;50.740;7.084;2022-10-16T11:50:17;24.90;1.00
41987;DHT22;28361;50.740;7.084;2022-10-16T11:55:36;23.00;1.00
41987;DHT22;28361;50.740;7.084;2022-10-16T12:00:53;21.60;1.00
41987;DHT22;28361;50.740;7.084;2022-10-16T12:03:29;21.40;1.00
41987;DHT22;28361;50.740;7.084;2022-10-16T12:08:45;21.20;1.00
41987;DHT22;28361;50.740;7.084;2022-10-16T12:11:30;21.20;1.00
41987;DHT22;28361;50.740;7.084;2022-10-16T12:14:17;21.10;1.00
41987;DHT22;28361;50.740;7.084;2022-10-16T12:19:24;21.10;1.00
41987;DHT22;28361;50.740;7.084;2022-10-16T12:21:51;21.20;1.00
41987;DHT22;28361;50.740;7.084;2022-10-16T12:24:39;21.50;1.00
41987;DHT22;28361;50.740;7.084;2022-10-16T12:30:03;22.00;1.00
41987;DHT22;28361;50.740;7.084;2022-10-16T12:32:36;22.20;1.00
41987;DHT22;28361;50.740;7.084;2022-10-16T12:35:05;22.00;1.00
41987;DHT22;28361;50.740;7.084;2022-10-16T12:37:34;21.90;1.00
41987;DHT22;28361;50.740;7.084;2022-10-16T12:40:23;21.70;1.00
41987;DHT22;28361;50.740;7.084;2022-10-16T12:42:50;21.60;1.00
41987;DHT22;28361;50.740;7.084;2022-10-16T12:45:30;21.30;1.00
41987;DHT22;28361;50.740;7.084;2022-10-16T12:47:57;21.30;1.00
41987;DHT22;28361;50.740;7.084;2022-10-16T12:50:34;21.40;1.00
41987;DHT22;28361;50.740;7.084;2022-10-16T12:53:01;21.50;3.80
41987;DHT22;28361;50.740;7.084;2022-10-16T12:55:35;21.70;1.00
41987;DHT22;28361;50.740;7.084;2022-10-16T12:58:16;22.00;1.00
41987;DHT22;28361;50.740;7.084;2022-10-16T13:00:57;22.00;1.00
41987;DHT22;28361;50.740;7.084;2022-10-16T13:12:09;22.20;1.00
41987;DHT22;28361;50.740;7.084;2022-10-16T13:17:28;21.50;1.00
41987;DHT22;28361;50.740;7.084;2022-10-16T13:25:31;20.90;1.90
41987;DHT22;28361;50.740;7.084;2022-10-16T13:28:05;20.80;1.00
41987;DHT22;28361;50.740;7.084;2022-10-16T13:30:42;20.80;1.00
41987;DHT22;28361;50.740;7.084;2022-10-16T13:33:24;20.80;4.10
41987;DHT22;28361;50.740;7.084;2022-10-16T13:35:53;20.90;3.90
41987;DHT22;28361;50.740;7.084;2022-10-16T13:38:24;20.80;1.00
41987;DHT22;28361;50.740;7.084;2022-10-16T13:40:55;21.00;1.00
41987;DHT22;28361;50.740;7.084;2022-10-16T13:43:31;21.00;1.00
41987;DHT22;28361;50.740;7.084;2022-10-16T13:46:07;20.90;4.20
41987;DHT22;28361;50.740;7.084;2022-10-16T13:48:33;20.80;4.10
41987;DHT22;28361;50.740;7.084;2022-10-16T13:51:19;20.90;3.10
41987;DHT22;28361;50.740;7.084;2022-10-16T13:53:45;21.20;1.00
41987;DHT22;28361;50.740;7.084;2022-10-16T13:56:17;21.40;1.00
41987;DHT22;28361;50.740;7.084;2022-10-16T13:58:44;21.60;1.00
41987;DHT22;28361;50.740;7.084;2022-10-16T14:01:30;22.30;1.00
41987;DHT22;28361;50.740;7.084;2022-10-16T14:04:04;22.40;1.00
41987;DHT22;28361;50.740;7.084;2022-10-16T14:06:31;21.50;1.00
41987;DHT22;28361;50.740;7.084;2022-10-16T14:09:12;21.20;1.00
41987;DHT22;28361;50.740;7.084;2022-10-16T14:11:49;21.20;1.00
41987;DHT22;28361;50.740;7.084;2022-10-16T14:14:18;21.30;1.00
41987;DHT22;28361;50.740;7.084;2022-10-16T14:16:44;21.50;1.00
41987;DHT22;28361;50.740;7.084;2022-10-16T14:19:21;21.10;1.00
41987;DHT22;28361;50.740;7.084;2022-10-16T14:21:49;20.90;1.10
41987;DHT22;28361;50.740;7.084;2022-10-16T14:26:57;20.90;2.40
41987;DHT22;28361;50.740;7.084;2022-10-16T14:34:42;20.90;4.20
41987;DHT22;28361;50.740;7.084;2022-10-16T14:37:15;20.80;9.60
41987;DHT22;28361;50.740;7.084;2022-10-16T14:39:49;20.70;9.10
41987;DHT22;28361;50.740;7.084;2022-10-16T14:42:17;20.80;12.10
41987;DHT22;28361;50.740;7.084;2022-10-16T14:44:45;21.00;10.60
41987;DHT22;28361;50.740;7.084;2022-10-16T14:47:17;21.10;9.00
41987;DHT22;28361;50.740;7.084;2022-10-16T14:49:48;20.80;13.80
41987;DHT22;28361;50.740;7.084;2022-10-16T14:52:14;20.70;30.70
41987;DHT22;28361;50.740;7.084;2022-10-16T14:54:40;20.50;46.40
41987;DHT22;28361;50.740;7.084;2022-10-16T14:57:19;20.50;50.20
41987;DHT22;28361;50.740;7.084;2022-10-16T14:59:47;20.40;59.50
41987;DHT22;28361;50.740;7.084;2022-10-16T15:02:25;20.30;63.70
41987;DHT22;28361;50.740;7.084;2022-10-16T15:04:56;20.30;71.40
41987;DHT22;28361;50.740;7.084;2022-10-16T15:07:22;20.30;72.00
41987;DHT22;28361;50.740;7.084;2022-10-16T15:09:48;20.20;76.80
41987;DHT22;28361;50.740;7.084;2022-10-16T15:12:14;20.10;81.50
41987;DHT22;28361;50.740;7.084;2022-10-16T15:14:40;20.10;87.20
41987;DHT22;28361;50.740;7.084;2022-10-16T15:17:09;20.00;91.10
41987;DHT22;28361;50.740;7.084;2022-10-16T15:19:35;19.90;92.50
41987;DHT22;28361;50.740;7.084;2022-10-16T15:22:01;19.90;87.10
41987;DHT22;28361;50.740;7.084;2022-10-16T15:24:26;20.00;83.40
41987;DHT22;28361;50.740;7.084;2022-10-16T15:26:52;19.90;85.60
41987;DHT22;28361;50.740;7.084;2022-10-16T15:29:18;20.00;84.90
41987;DHT22;28361;50.740;7.084;2022-10-16T15:31:44;19.90;84.50
41987;DHT22;28361;50.740;7.084;2022-10-16T15:34:12;19.90;82.40
41987;DHT22;28361;50.740;7.084;2022-10-16T15:36:39;19.90;86.20
41987;DHT22;28361;50.740;7.084;2022-10-16T15:39:13;19.80;87.70
41987;DHT22;28361;50.740;7.084;2022-10-16T15:41:39;19.70;93.10
41987;DHT22;28361;50.740;7.084;2022-10-16T15:44:05;19.60;93.80
41987;DHT22;28361;50.740;7.084;2022-10-16T15:46:30;19.70;93.50
41987;DHT22;28361;50.740;7.084;2022-10-16T15:48:58;19.60;95.30
41987;DHT22;28361;50.740;7.084;2022-10-16T15:51:25;19.60;93.70
41987;DHT22;28361;50.740;7.084;2022-10-16T15:53:57;19.60;92.80
41987;DHT22;28361;50.740;7.084;2022-10-16T15:56:23;19.70;91.10
41987;DHT22;28361;50.740;7.084;2022-10-16T15:58:52;19.70;91.80
41987;DHT22;28361;50.740;7.084;2022-10-16T16:01:19;19.60;91.70
41987;DHT22;28361;50.740;7.084;2022-10-16T16:03:44;19.60;92.30
41987;DHT22;28361;50.740;7.084;2022-10-16T16:06:12;19.60;92.80
41987;DHT22;28361;50.740;7.084;2022-10-16T16:08:38;19.50;94.40
41987;DHT22;28361;50.740;7.084;2022-10-16T16:11:07;19.60;94.60
41987;DHT22;28361;50.740;7.084;2022-10-16T16:13:34;19.40;95.10
41987;DHT22;28361;50.740;7.084;2022-10-16T16:15:59;19.40;98.60
41987;DHT22;28361;50.740;7.084;2022-10-16T16:18:26;19.30;99.30
41987;DHT22;28361;50.740;7.084;2022-10-16T16:20:52;19.30;99.90
41987;DHT22;28361;50.740;7.084;2022-10-16T16:23:18;19.30;99.90
41987;DHT22;28361;50.740;7.084;2022-10-16T16:25:45;19.20;99.90
41987;DHT22;28361;50.740;7.084;2022-10-16T16:28:11;19.20;99.90
41987;DHT22;28361;50.740;7.084;2022-10-16T16:30:40;19.20;99.90
41987;DHT22;28361;50.740;7.084;2022-10-16T16:33:06;19.30;99.90
41987;DHT22;28361;50.740;7.084;2022-10-16T16:35:32;19.20;99.90
41987;DHT22;28361;50.740;7.084;2022-10-16T16:37:57;19.10;99.90
41987;DHT22;28361;50.740;7.084;2022-10-16T16:40:23;19.10;99.90
41987;DHT22;28361;50.740;7.084;2022-10-16T16:42:49;19.10;99.90
41987;DHT22;28361;50.740;7.084;2022-10-16T16:45:15;19.10;99.90
41987;DHT22;28361;50.740;7.084;2022-10-16T16:47:40;19.10;99.90
41987;DHT22;28361;50.740;7.084;2022-10-16T16:50:06;19.00;99.90
41987;DHT22;28361;50.740;7.084;2022-10-16T16:52:34;18.90;99.90
41987;DHT22;28361;50.740;7.084;2022-10-16T16:54:59;18.90;99.90
41987;DHT22;28361;50.740;7.084;2022-10-16T16:57:26;18.90;99.90
41987;DHT22;28361;50.740;7.084;2022-10-16T16:59:52;18.80;99.90
41987;DHT22;28361;50.740;7.084;2022-10-16T17:02:17;18.80;99.90
41987;DHT22;28361;50.740;7.084;2022-10-16T17:04:43;18.80;99.90
41987;DHT22;28361;50.740;7.084;2022-10-16T17:07:09;18.80;99.90
41987;DHT22;28361;50.740;7.084;2022-10-16T18:25:54;18.70;99.90
